<?xml version="1.0" encoding="UTF-8" standalone="no" ?>
<gpx xmlns="http://www.topografix.com/GPX/1/1" xmlns:xsi="http://www.w3.org/2001/XMLSchema-instance" xsi:schemaLocation="http://www.topografix.com/GPX/1/1 http://www.topografix.com/GPX/1/1/gpx.xsd" version="1.1" creator="VisuGPX - https://www.visugpx.com">
  <metadata>
    <name>Transcaucasie: Géorgie + Arménie</name>
  </metadata>
  <trk>
    <name><![CDATA[Transcaucasie: Géorgie + Arménie_4]]></name>
    <extensions>
      <line xmlns="http://www.topografix.com/GPX/gpx_style/0/2">
        <color>00FFFF</color>
        <width>4</width>
      </line>
    </extensions>
    <trkseg>
      <trkpt lat="42.71845" lon="42.03843">
        <ele>285.7</ele>
        <time>2021-09-11T05:40:09.831Z</time>
      </trkpt>
      <trkpt lat="42.71906" lon="42.03776">
        <ele>285.8</ele>
        <time>2021-09-11T05:45:29.590Z</time>
      </trkpt>
      <trkpt lat="42.72079" lon="42.03818">
        <ele>288.8</ele>
        <time>2021-09-11T05:46:49.568Z</time>
      </trkpt>
      <trkpt lat="42.72257" lon="42.03885">
        <ele>293</ele>
        <time>2021-09-11T05:48:03.542Z</time>
      </trkpt>
      <trkpt lat="42.72438" lon="42.03944">
        <ele>298.7</ele>
        <time>2021-09-11T05:49:12.566Z</time>
      </trkpt>
      <trkpt lat="42.7261" lon="42.04056">
        <ele>297.4</ele>
        <time>2021-09-11T05:50:22.562Z</time>
      </trkpt>
      <trkpt lat="42.72759" lon="42.04204">
        <ele>296.1</ele>
        <time>2021-09-11T05:51:20.538Z</time>
      </trkpt>
      <trkpt lat="42.72915" lon="42.04145">
        <ele>297.5</ele>
        <time>2021-09-11T05:52:35.572Z</time>
      </trkpt>
      <trkpt lat="42.72976" lon="42.03943">
        <ele>306</ele>
        <time>2021-09-11T05:54:01.583Z</time>
      </trkpt>
      <trkpt lat="42.72927" lon="42.03711">
        <ele>318.7</ele>
        <time>2021-09-11T05:55:46.559Z</time>
      </trkpt>
      <trkpt lat="42.72912" lon="42.03475">
        <ele>329</ele>
        <time>2021-09-11T05:57:29.590Z</time>
      </trkpt>
      <trkpt lat="42.72954" lon="42.03246">
        <ele>337.5</ele>
        <time>2021-09-11T05:59:30.586Z</time>
      </trkpt>
      <trkpt lat="42.73067" lon="42.0314">
        <ele>348.8</ele>
        <time>2021-09-11T06:01:28.559Z</time>
      </trkpt>
      <trkpt lat="42.73047" lon="42.03335">
        <ele>358</ele>
        <time>2021-09-11T06:03:16.574Z</time>
      </trkpt>
      <trkpt lat="42.73011" lon="42.03561">
        <ele>361.7</ele>
        <time>2021-09-11T06:04:54.563Z</time>
      </trkpt>
      <trkpt lat="42.73069" lon="42.03779">
        <ele>379.3</ele>
        <time>2021-09-11T06:06:57.539Z</time>
      </trkpt>
      <trkpt lat="42.73129" lon="42.03995">
        <ele>387</ele>
        <time>2021-09-11T06:09:08.560Z</time>
      </trkpt>
      <trkpt lat="42.73264" lon="42.04137">
        <ele>397.4</ele>
        <time>2021-09-11T06:11:16.564Z</time>
      </trkpt>
      <trkpt lat="42.73412" lon="42.04264">
        <ele>404.3</ele>
        <time>2021-09-11T06:13:03.544Z</time>
      </trkpt>
      <trkpt lat="42.73554" lon="42.04409">
        <ele>411</ele>
        <time>2021-09-11T06:14:42.557Z</time>
      </trkpt>
      <trkpt lat="42.73704" lon="42.04535">
        <ele>418.4</ele>
        <time>2021-09-11T06:16:34.560Z</time>
      </trkpt>
      <trkpt lat="42.73856" lon="42.04652">
        <ele>425</ele>
        <time>2021-09-11T06:18:32.568Z</time>
      </trkpt>
      <trkpt lat="42.74013" lon="42.04742">
        <ele>435.3</ele>
        <time>2021-09-11T06:20:36.565Z</time>
      </trkpt>
      <trkpt lat="42.7416" lon="42.04867">
        <ele>442.4</ele>
        <time>2021-09-11T06:22:47.563Z</time>
      </trkpt>
      <trkpt lat="42.74322" lon="42.04948">
        <ele>448.3</ele>
        <time>2021-09-11T06:24:42.579Z</time>
      </trkpt>
      <trkpt lat="42.74485" lon="42.05014">
        <ele>457.4</ele>
        <time>2021-09-11T06:26:44.565Z</time>
      </trkpt>
      <trkpt lat="42.74656" lon="42.04985">
        <ele>468.3</ele>
        <time>2021-09-11T06:28:53.557Z</time>
      </trkpt>
      <trkpt lat="42.74825" lon="42.04928">
        <ele>475.7</ele>
        <time>2021-09-11T06:30:59.565Z</time>
      </trkpt>
      <trkpt lat="42.74997" lon="42.04899">
        <ele>487.9</ele>
        <time>2021-09-11T06:33:12.572Z</time>
      </trkpt>
      <trkpt lat="42.75122" lon="42.04751">
        <ele>494.9</ele>
        <time>2021-09-11T06:34:56.553Z</time>
      </trkpt>
      <trkpt lat="42.75237" lon="42.04553">
        <ele>498.9</ele>
        <time>2021-09-11T06:36:06.579Z</time>
      </trkpt>
      <trkpt lat="42.75385" lon="42.04431">
        <ele>509.7</ele>
        <time>2021-09-11T06:37:51.575Z</time>
      </trkpt>
      <trkpt lat="42.7554" lon="42.0436">
        <ele>517.6</ele>
        <time>2021-09-11T06:40:29.574Z</time>
      </trkpt>
      <trkpt lat="42.75631" lon="42.04377">
        <ele>516</ele>
        <time>2021-09-11T06:57:59.604Z</time>
      </trkpt>
      <trkpt lat="42.75766" lon="42.04498">
        <ele>524.2</ele>
        <time>2021-09-11T06:59:58.560Z</time>
      </trkpt>
      <trkpt lat="42.75928" lon="42.04567">
        <ele>539.5</ele>
        <time>2021-09-11T07:02:36.565Z</time>
      </trkpt>
      <trkpt lat="42.76076" lon="42.04659">
        <ele>555</ele>
        <time>2021-09-11T07:05:10.554Z</time>
      </trkpt>
      <trkpt lat="42.76193" lon="42.04816">
        <ele>568.3</ele>
        <time>2021-09-11T07:07:36.565Z</time>
      </trkpt>
      <trkpt lat="42.76303" lon="42.04953">
        <ele>535.5</ele>
        <time>2021-09-11T07:09:56.282Z</time>
      </trkpt>
      <trkpt lat="42.76524" lon="42.04915">
        <ele>587.3</ele>
        <time>2021-09-11T07:11:42.923Z</time>
      </trkpt>
      <trkpt lat="42.76663" lon="42.05459">
        <ele>579.2</ele>
        <time>2021-09-11T07:14:44.104Z</time>
      </trkpt>
      <trkpt lat="42.76805" lon="42.0547">
        <ele>666.8</ele>
        <time>2021-09-11T07:16:05.066Z</time>
      </trkpt>
      <trkpt lat="42.76913" lon="42.05602">
        <ele>644.2</ele>
        <time>2021-09-11T07:17:16.891Z</time>
      </trkpt>
      <trkpt lat="42.77231" lon="42.05585">
        <ele>731.2</ele>
        <time>2021-09-11T07:19:40.966Z</time>
      </trkpt>
      <trkpt lat="42.77544" lon="42.05328">
        <ele>619.9</ele>
        <time>2021-09-11T07:22:25.152Z</time>
      </trkpt>
      <trkpt lat="42.77734" lon="42.05583">
        <ele>702.9</ele>
        <time>2021-09-11T07:24:29.129Z</time>
      </trkpt>
      <trkpt lat="42.78139" lon="42.05576">
        <ele>716</ele>
        <time>2021-09-11T07:27:22.923Z</time>
      </trkpt>
      <trkpt lat="42.78274" lon="42.05684">
        <ele>741.2</ele>
        <time>2021-09-11T07:28:22.482Z</time>
      </trkpt>
      <trkpt lat="42.78457" lon="42.05634">
        <ele>741.1</ele>
        <time>2021-09-11T07:29:06.488Z</time>
      </trkpt>
      <trkpt lat="42.78631" lon="42.05606">
        <ele>735.6</ele>
        <time>2021-09-11T07:29:42.485Z</time>
      </trkpt>
      <trkpt lat="42.78788" lon="42.05471">
        <ele>731.6</ele>
        <time>2021-09-11T07:30:37.502Z</time>
      </trkpt>
      <trkpt lat="42.7885" lon="42.05208">
        <ele>722.1</ele>
        <time>2021-09-11T07:33:48.471Z</time>
      </trkpt>
      <trkpt lat="42.78718" lon="42.05053">
        <ele>717</ele>
        <time>2021-09-11T07:34:28.485Z</time>
      </trkpt>
      <trkpt lat="42.78728" lon="42.04795">
        <ele>720.7</ele>
        <time>2021-09-11T07:35:18.481Z</time>
      </trkpt>
      <trkpt lat="42.78843" lon="42.04597">
        <ele>706.1</ele>
        <time>2021-09-11T07:35:59.495Z</time>
      </trkpt>
      <trkpt lat="42.79017" lon="42.04533">
        <ele>695.2</ele>
        <time>2021-09-11T07:36:45.518Z</time>
      </trkpt>
      <trkpt lat="42.79186" lon="42.04446">
        <ele>687.6</ele>
        <time>2021-09-11T07:37:28.480Z</time>
      </trkpt>
      <trkpt lat="42.79334" lon="42.04242">
        <ele>678.3</ele>
        <time>2021-09-11T07:38:09.490Z</time>
      </trkpt>
      <trkpt lat="42.7953" lon="42.04276">
        <ele>670.2</ele>
        <time>2021-09-11T07:38:48.485Z</time>
      </trkpt>
      <trkpt lat="42.79704" lon="42.04148">
        <ele>658.3</ele>
        <time>2021-09-11T07:39:26.489Z</time>
      </trkpt>
      <trkpt lat="42.79874" lon="42.04057">
        <ele>639.8</ele>
        <time>2021-09-11T07:40:02.487Z</time>
      </trkpt>
      <trkpt lat="42.80038" lon="42.04169">
        <ele>619.8</ele>
        <time>2021-09-11T07:40:45.484Z</time>
      </trkpt>
      <trkpt lat="42.80187" lon="42.04276">
        <ele>606.7</ele>
        <time>2021-09-11T07:41:33.502Z</time>
      </trkpt>
      <trkpt lat="42.80342" lon="42.04429">
        <ele>603.4</ele>
        <time>2021-09-11T07:45:24.502Z</time>
      </trkpt>
      <trkpt lat="42.80509" lon="42.04372">
        <ele>608.1</ele>
        <time>2021-09-11T07:46:36.487Z</time>
      </trkpt>
      <trkpt lat="42.80679" lon="42.04262">
        <ele>611.1</ele>
        <time>2021-09-11T07:47:26.493Z</time>
      </trkpt>
      <trkpt lat="42.8085" lon="42.04368">
        <ele>599.2</ele>
        <time>2021-09-11T07:48:36.502Z</time>
      </trkpt>
      <trkpt lat="42.81056" lon="42.04438">
        <ele>615.8</ele>
        <time>2021-09-11T07:57:55.299Z</time>
      </trkpt>
      <trkpt lat="42.81026" lon="42.04196">
        <ele>617.5</ele>
        <time>2021-09-11T07:59:05.227Z</time>
      </trkpt>
      <trkpt lat="42.80982" lon="42.03969">
        <ele>617.8</ele>
        <time>2021-09-11T08:00:41.253Z</time>
      </trkpt>
      <trkpt lat="42.81007" lon="42.03768">
        <ele>625</ele>
        <time>2021-09-11T08:02:41.252Z</time>
      </trkpt>
      <trkpt lat="42.8114" lon="42.03617">
        <ele>632.4</ele>
        <time>2021-09-11T08:04:35.271Z</time>
      </trkpt>
      <trkpt lat="42.81288" lon="42.03482">
        <ele>638.1</ele>
        <time>2021-09-11T08:06:01.247Z</time>
      </trkpt>
      <trkpt lat="42.81406" lon="42.03315">
        <ele>644.8</ele>
        <time>2021-09-11T08:07:15.241Z</time>
      </trkpt>
      <trkpt lat="42.81516" lon="42.03166">
        <ele>640.7</ele>
        <time>2021-09-11T08:08:17.226Z</time>
      </trkpt>
      <trkpt lat="42.81712" lon="42.03139">
        <ele>625</ele>
        <time>2021-09-11T08:08:54.240Z</time>
      </trkpt>
      <trkpt lat="42.81826" lon="42.02883">
        <ele>612.5</ele>
        <time>2021-09-11T08:09:30.241Z</time>
      </trkpt>
      <trkpt lat="42.81992" lon="42.02748">
        <ele>606.4</ele>
        <time>2021-09-11T08:10:06.243Z</time>
      </trkpt>
      <trkpt lat="42.82173" lon="42.02702">
        <ele>603.7</ele>
        <time>2021-09-11T08:11:07.282Z</time>
      </trkpt>
      <trkpt lat="42.8234" lon="42.02589">
        <ele>602.4</ele>
        <time>2021-09-11T08:11:50.254Z</time>
      </trkpt>
      <trkpt lat="42.8248" lon="42.02699">
        <ele>600</ele>
        <time>2021-09-11T08:12:26.240Z</time>
      </trkpt>
      <trkpt lat="42.82643" lon="42.02804">
        <ele>599.3</ele>
        <time>2021-09-11T08:13:26.229Z</time>
      </trkpt>
      <trkpt lat="42.82759" lon="42.02762">
        <ele>607.4</ele>
        <time>2021-09-11T08:14:53.240Z</time>
      </trkpt>
      <trkpt lat="42.82711" lon="42.02539">
        <ele>614.3</ele>
        <time>2021-09-11T08:16:33.271Z</time>
      </trkpt>
      <trkpt lat="42.82828" lon="42.02373">
        <ele>614.5</ele>
        <time>2021-09-11T08:18:14.249Z</time>
      </trkpt>
      <trkpt lat="42.82989" lon="42.02247">
        <ele>615.3</ele>
        <time>2021-09-11T08:19:30.248Z</time>
      </trkpt>
      <trkpt lat="42.83127" lon="42.02209">
        <ele>612.1</ele>
        <time>2021-09-11T08:20:32.248Z</time>
      </trkpt>
      <trkpt lat="42.8325" lon="42.02404">
        <ele>620.2</ele>
        <time>2021-09-11T08:21:34.247Z</time>
      </trkpt>
      <trkpt lat="42.83388" lon="42.02303">
        <ele>621.4</ele>
        <time>2021-09-11T08:22:32.264Z</time>
      </trkpt>
      <trkpt lat="42.83524" lon="42.02096">
        <ele>614.9</ele>
        <time>2021-09-11T08:31:33.242Z</time>
      </trkpt>
      <trkpt lat="42.83673" lon="42.01946">
        <ele>605.5</ele>
        <time>2021-09-11T08:32:24.260Z</time>
      </trkpt>
      <trkpt lat="42.83837" lon="42.01821">
        <ele>600.5</ele>
        <time>2021-09-11T08:33:04.236Z</time>
      </trkpt>
      <trkpt lat="42.84003" lon="42.01724">
        <ele>596.3</ele>
        <time>2021-09-11T08:33:40.254Z</time>
      </trkpt>
      <trkpt lat="42.84437" lon="42.01854">
        <ele>606.7</ele>
        <time>2021-09-11T08:37:08.253Z</time>
      </trkpt>
      <trkpt lat="42.84579" lon="42.01997">
        <ele>608.7</ele>
        <time>2021-09-11T08:38:26.275Z</time>
      </trkpt>
      <trkpt lat="42.84728" lon="42.02103">
        <ele>614</ele>
        <time>2021-09-11T08:39:46.245Z</time>
      </trkpt>
      <trkpt lat="42.84883" lon="42.02098">
        <ele>613.3</ele>
        <time>2021-09-11T08:40:38.250Z</time>
      </trkpt>
      <trkpt lat="42.8509" lon="42.02105">
        <ele>601.1</ele>
        <time>2021-09-11T08:41:14.284Z</time>
      </trkpt>
      <trkpt lat="42.85302" lon="42.02191">
        <ele>585.6</ele>
        <time>2021-09-11T08:41:50.230Z</time>
      </trkpt>
      <trkpt lat="42.85504" lon="42.02329">
        <ele>572.1</ele>
        <time>2021-09-11T08:42:26.243Z</time>
      </trkpt>
      <trkpt lat="42.85617" lon="42.02535">
        <ele>583.6</ele>
        <time>2021-09-11T08:43:33.255Z</time>
      </trkpt>
      <trkpt lat="42.8576" lon="42.02664">
        <ele>606.6</ele>
        <time>2021-09-11T08:45:48.244Z</time>
      </trkpt>
      <trkpt lat="42.85928" lon="42.02631">
        <ele>608.5</ele>
        <time>2021-09-11T08:47:05.283Z</time>
      </trkpt>
      <trkpt lat="42.86041" lon="42.02857">
        <ele>601.4</ele>
        <time>2021-09-11T08:47:47.249Z</time>
      </trkpt>
      <trkpt lat="42.86201" lon="42.02961">
        <ele>605.4</ele>
        <time>2021-09-11T08:49:12.238Z</time>
      </trkpt>
      <trkpt lat="42.86237" lon="42.03124">
        <ele>616.5</ele>
        <time>2021-09-11T08:50:52.237Z</time>
      </trkpt>
      <trkpt lat="42.86221" lon="42.0332">
        <ele>620.2</ele>
        <time>2021-09-11T08:52:50.239Z</time>
      </trkpt>
      <trkpt lat="42.86045" lon="42.03272">
        <ele>619.3</ele>
        <time>2021-09-11T08:54:13.235Z</time>
      </trkpt>
      <trkpt lat="42.8588" lon="42.03272">
        <ele>619.7</ele>
        <time>2021-09-11T08:54:56.265Z</time>
      </trkpt>
      <trkpt lat="42.85951" lon="42.03358">
        <ele>613.8</ele>
        <time>2021-09-11T08:56:13.231Z</time>
      </trkpt>
      <trkpt lat="42.86113" lon="42.03455">
        <ele>608.8</ele>
        <time>2021-09-11T08:57:19.249Z</time>
      </trkpt>
      <trkpt lat="42.86273" lon="42.03544">
        <ele>611.1</ele>
        <time>2021-09-11T08:58:42.230Z</time>
      </trkpt>
      <trkpt lat="42.86451" lon="42.03579">
        <ele>619.8</ele>
        <time>2021-09-11T09:00:02.253Z</time>
      </trkpt>
      <trkpt lat="42.86478" lon="42.03366">
        <ele>617.6</ele>
        <time>2021-09-11T09:01:45.239Z</time>
      </trkpt>
      <trkpt lat="42.86561" lon="42.03191">
        <ele>608.7</ele>
        <time>2021-09-11T09:02:49.239Z</time>
      </trkpt>
      <trkpt lat="42.86727" lon="42.03252">
        <ele>619.3</ele>
        <time>2021-09-11T09:03:54.240Z</time>
      </trkpt>
      <trkpt lat="42.86941" lon="42.03137">
        <ele>607.9</ele>
        <time>2021-09-11T09:04:30.283Z</time>
      </trkpt>
      <trkpt lat="42.87132" lon="42.03191">
        <ele>592.3</ele>
        <time>2021-09-11T09:05:06.237Z</time>
      </trkpt>
      <trkpt lat="42.8729" lon="42.0304">
        <ele>584.4</ele>
        <time>2021-09-11T09:06:03.262Z</time>
      </trkpt>
      <trkpt lat="42.87503" lon="42.0307">
        <ele>581.3</ele>
        <time>2021-09-11T09:06:39.238Z</time>
      </trkpt>
      <trkpt lat="42.87732" lon="42.03194">
        <ele>585.8</ele>
        <time>2021-09-11T09:07:25.238Z</time>
      </trkpt>
      <trkpt lat="42.87885" lon="42.03304">
        <ele>597.8</ele>
        <time>2021-09-11T09:09:33.245Z</time>
      </trkpt>
      <trkpt lat="42.88015" lon="42.03469">
        <ele>603.3</ele>
        <time>2021-09-11T09:10:42.245Z</time>
      </trkpt>
      <trkpt lat="42.88208" lon="42.03612">
        <ele>594.7</ele>
        <time>2021-09-11T09:11:14.274Z</time>
      </trkpt>
      <trkpt lat="42.88246" lon="42.0406">
        <ele>575.6</ele>
        <time>2021-09-11T09:12:18.282Z</time>
      </trkpt>
      <trkpt lat="42.88539" lon="42.04152">
        <ele>580.3</ele>
        <time>2021-09-11T09:14:35.266Z</time>
      </trkpt>
      <trkpt lat="42.88777" lon="42.04164">
        <ele>588.7</ele>
        <time>2021-09-11T09:16:47.235Z</time>
      </trkpt>
      <trkpt lat="42.8896" lon="42.04103">
        <ele>593.9</ele>
        <time>2021-09-11T09:17:56.255Z</time>
      </trkpt>
      <trkpt lat="42.89151" lon="42.04078">
        <ele>590.2</ele>
        <time>2021-09-11T09:19:03.239Z</time>
      </trkpt>
      <trkpt lat="42.89336" lon="42.04201">
        <ele>581.4</ele>
        <time>2021-09-11T09:19:48.240Z</time>
      </trkpt>
      <trkpt lat="42.89515" lon="42.0429">
        <ele>576.6</ele>
        <time>2021-09-11T09:20:24.248Z</time>
      </trkpt>
      <trkpt lat="42.89685" lon="42.045">
        <ele>570</ele>
        <time>2021-09-11T09:21:00.279Z</time>
      </trkpt>
      <trkpt lat="42.89817" lon="42.04725">
        <ele>572.7</ele>
        <time>2021-09-11T09:22:07.250Z</time>
      </trkpt>
      <trkpt lat="42.89957" lon="42.04818">
        <ele>585.7</ele>
        <time>2021-09-11T09:24:25.249Z</time>
      </trkpt>
      <trkpt lat="42.90058" lon="42.05033">
        <ele>589.9</ele>
        <time>2021-09-11T09:25:25.257Z</time>
      </trkpt>
      <trkpt lat="42.90103" lon="42.05347">
        <ele>579.1</ele>
        <time>2021-09-11T09:26:01.250Z</time>
      </trkpt>
      <trkpt lat="42.9021" lon="42.05632">
        <ele>566.6</ele>
        <time>2021-09-11T09:26:37.248Z</time>
      </trkpt>
      <trkpt lat="42.90322" lon="42.05723">
        <ele>559.6</ele>
        <time>2021-09-11T09:27:23.254Z</time>
      </trkpt>
      <trkpt lat="42.90925" lon="42.06065">
        <ele>572.8</ele>
        <time>2021-09-11T09:30:26.252Z</time>
      </trkpt>
      <trkpt lat="42.91065" lon="42.06198">
        <ele>576.4</ele>
        <time>2021-09-11T09:31:42.283Z</time>
      </trkpt>
      <trkpt lat="42.91107" lon="42.06501">
        <ele>583</ele>
        <time>2021-09-11T09:32:16.234Z</time>
      </trkpt>
      <trkpt lat="42.91133" lon="42.06734">
        <ele>589.1</ele>
        <time>2021-09-11T09:33:58.251Z</time>
      </trkpt>
      <trkpt lat="42.91151" lon="42.0697">
        <ele>597.1</ele>
        <time>2021-09-11T09:35:53.278Z</time>
      </trkpt>
      <trkpt lat="42.9122" lon="42.07181">
        <ele>594.5</ele>
        <time>2021-09-11T09:37:16.251Z</time>
      </trkpt>
      <trkpt lat="42.91378" lon="42.07543">
        <ele>591.1</ele>
        <time>2021-09-11T09:38:30.247Z</time>
      </trkpt>
      <trkpt lat="42.91514" lon="42.07829">
        <ele>573.4</ele>
        <time>2021-09-11T09:39:01.259Z</time>
      </trkpt>
      <trkpt lat="42.91672" lon="42.08081">
        <ele>553.3</ele>
        <time>2021-09-11T09:39:38.260Z</time>
      </trkpt>
      <trkpt lat="42.91845" lon="42.08248">
        <ele>543.1</ele>
        <time>2021-09-11T09:40:13.247Z</time>
      </trkpt>
      <trkpt lat="42.91954" lon="42.08249">
        <ele>550.4</ele>
        <time>2021-09-11T09:41:49.246Z</time>
      </trkpt>
      <trkpt lat="42.92094" lon="42.08303">
        <ele>559.7</ele>
        <time>2021-09-11T09:43:42.278Z</time>
      </trkpt>
      <trkpt lat="42.92164" lon="42.08524">
        <ele>563.8</ele>
        <time>2021-09-11T09:45:02.261Z</time>
      </trkpt>
      <trkpt lat="42.92224" lon="42.08756">
        <ele>568.1</ele>
        <time>2021-09-11T09:46:00.263Z</time>
      </trkpt>
      <trkpt lat="42.92281" lon="42.08973">
        <ele>577.6</ele>
        <time>2021-09-11T09:47:25.249Z</time>
      </trkpt>
      <trkpt lat="42.92343" lon="42.09219">
        <ele>580.3</ele>
        <time>2021-09-11T09:48:52.252Z</time>
      </trkpt>
      <trkpt lat="42.92445" lon="42.09527">
        <ele>578.1</ele>
        <time>2021-09-11T09:49:28.280Z</time>
      </trkpt>
      <trkpt lat="42.9257" lon="42.09734">
        <ele>562.9</ele>
        <time>2021-09-11T09:49:49.234Z</time>
      </trkpt>
      <trkpt lat="42.92713" lon="42.09899">
        <ele>553.9</ele>
        <time>2021-09-11T09:51:05.233Z</time>
      </trkpt>
      <trkpt lat="42.92782" lon="42.10121">
        <ele>564.9</ele>
        <time>2021-09-11T09:52:19.238Z</time>
      </trkpt>
      <trkpt lat="42.92907" lon="42.10322">
        <ele>550.6</ele>
        <time>2021-09-11T09:52:55.283Z</time>
      </trkpt>
      <trkpt lat="42.9308" lon="42.10556">
        <ele>535.8</ele>
        <time>2021-09-11T09:53:31.255Z</time>
      </trkpt>
      <trkpt lat="42.93153" lon="42.108">
        <ele>541.5</ele>
        <time>2021-09-11T09:54:16.236Z</time>
      </trkpt>
      <trkpt lat="42.93138" lon="42.11069">
        <ele>548.4</ele>
        <time>2021-09-11T09:55:10.229Z</time>
      </trkpt>
      <trkpt lat="42.93074" lon="42.11311">
        <ele>552.1</ele>
        <time>2021-09-11T09:56:03.250Z</time>
      </trkpt>
      <trkpt lat="42.93029" lon="42.11566">
        <ele>548.1</ele>
        <time>2021-09-11T09:56:48.252Z</time>
      </trkpt>
      <trkpt lat="42.92989" lon="42.11853">
        <ele>550</ele>
        <time>2021-09-11T09:57:26.268Z</time>
      </trkpt>
      <trkpt lat="42.93098" lon="42.12004">
        <ele>548.5</ele>
        <time>2021-09-11T09:59:07.252Z</time>
      </trkpt>
      <trkpt lat="42.93137" lon="42.12217">
        <ele>557</ele>
        <time>2021-09-11T10:05:40.250Z</time>
      </trkpt>
      <trkpt lat="42.93123" lon="42.12462">
        <ele>559.2</ele>
        <time>2021-09-11T10:06:54.235Z</time>
      </trkpt>
      <trkpt lat="42.93172" lon="42.12717">
        <ele>549.2</ele>
        <time>2021-09-11T10:07:44.261Z</time>
      </trkpt>
      <trkpt lat="42.93293" lon="42.1299">
        <ele>542.8</ele>
        <time>2021-09-11T10:08:20.236Z</time>
      </trkpt>
      <trkpt lat="42.93431" lon="42.1318">
        <ele>546.2</ele>
        <time>2021-09-11T10:09:15.248Z</time>
      </trkpt>
      <trkpt lat="42.93459" lon="42.13437">
        <ele>552.9</ele>
        <time>2021-09-11T10:10:27.258Z</time>
      </trkpt>
      <trkpt lat="42.93497" lon="42.13698">
        <ele>554.4</ele>
        <time>2021-09-11T10:11:19.266Z</time>
      </trkpt>
      <trkpt lat="42.93605" lon="42.13932">
        <ele>550.9</ele>
        <time>2021-09-11T10:12:06.294Z</time>
      </trkpt>
      <trkpt lat="42.93614" lon="42.14202">
        <ele>552.7</ele>
        <time>2021-09-11T10:12:59.250Z</time>
      </trkpt>
      <trkpt lat="42.9354" lon="42.14459">
        <ele>554.3</ele>
        <time>2021-09-11T10:13:46.245Z</time>
      </trkpt>
      <trkpt lat="42.93544" lon="42.14717">
        <ele>553.9</ele>
        <time>2021-09-11T10:14:47.250Z</time>
      </trkpt>
      <trkpt lat="42.93639" lon="42.14915">
        <ele>554.1</ele>
        <time>2021-09-11T10:16:01.252Z</time>
      </trkpt>
      <trkpt lat="42.93749" lon="42.15105">
        <ele>556.4</ele>
        <time>2021-09-11T10:17:25.253Z</time>
      </trkpt>
      <trkpt lat="42.93787" lon="42.15357">
        <ele>557</ele>
        <time>2021-09-11T10:23:23.250Z</time>
      </trkpt>
      <trkpt lat="42.93787" lon="42.1561">
        <ele>562.5</ele>
        <time>2021-09-11T10:24:23.258Z</time>
      </trkpt>
      <trkpt lat="42.93878" lon="42.15818">
        <ele>570.3</ele>
        <time>2021-09-11T10:25:39.296Z</time>
      </trkpt>
      <trkpt lat="42.93954" lon="42.16058">
        <ele>567.6</ele>
        <time>2021-09-11T10:26:41.267Z</time>
      </trkpt>
      <trkpt lat="42.93987" lon="42.16316">
        <ele>567.8</ele>
        <time>2021-09-11T10:27:37.250Z</time>
      </trkpt>
      <trkpt lat="42.94017" lon="42.16572">
        <ele>572.9</ele>
        <time>2021-09-11T10:28:37.250Z</time>
      </trkpt>
      <trkpt lat="42.94011" lon="42.16835">
        <ele>579.7</ele>
        <time>2021-09-11T10:29:32.258Z</time>
      </trkpt>
      <trkpt lat="42.94107" lon="42.17036">
        <ele>582.4</ele>
        <time>2021-09-11T10:31:17.237Z</time>
      </trkpt>
      <trkpt lat="42.94257" lon="42.17171">
        <ele>582.8</ele>
        <time>2021-09-11T10:33:03.256Z</time>
      </trkpt>
      <trkpt lat="42.94368" lon="42.17358">
        <ele>580.5</ele>
        <time>2021-09-11T10:33:53.253Z</time>
      </trkpt>
      <trkpt lat="42.94438" lon="42.17604">
        <ele>585.4</ele>
        <time>2021-09-11T10:34:51.258Z</time>
      </trkpt>
      <trkpt lat="42.94433" lon="42.17875">
        <ele>581.6</ele>
        <time>2021-09-11T10:35:37.247Z</time>
      </trkpt>
      <trkpt lat="42.94414" lon="42.18122">
        <ele>586.5</ele>
        <time>2021-09-11T10:36:55.258Z</time>
      </trkpt>
      <trkpt lat="42.94439" lon="42.18364">
        <ele>584.7</ele>
        <time>2021-09-11T10:38:26.259Z</time>
      </trkpt>
      <trkpt lat="42.94429" lon="42.18594">
        <ele>592.6</ele>
        <time>2021-09-11T10:55:24.919Z</time>
      </trkpt>
      <trkpt lat="42.94577" lon="42.18628">
        <ele>600.9</ele>
        <time>2021-09-11T10:57:29.963Z</time>
      </trkpt>
      <trkpt lat="42.9459" lon="42.18866">
        <ele>613.2</ele>
        <time>2021-09-11T10:59:14.907Z</time>
      </trkpt>
      <trkpt lat="42.9456" lon="42.188">
        <ele>634.6</ele>
        <time>2021-09-11T11:01:44.955Z</time>
      </trkpt>
      <trkpt lat="42.94437" lon="42.18795">
        <ele>640.4</ele>
        <time>2021-09-11T11:06:43.928Z</time>
      </trkpt>
      <trkpt lat="42.94261" lon="42.18814">
        <ele>638.6</ele>
        <time>2021-09-11T11:11:24.968Z</time>
      </trkpt>
      <trkpt lat="42.9425" lon="42.18937">
        <ele>638.6</ele>
        <time>2021-09-11T11:24:15.225Z</time>
      </trkpt>
    </trkseg>
  </trk>
</gpx>